Chilcompton, United Kingdom
Current Conditions -  °F | °C
As of 1:20 AM on Wednesday 26 Nov 2014 (Local Time) from EGGD Reporting Station
Light Rain Light Rain  
Wind Chill: 36°   Ceiling: 100
Heat Index: 41°   Visibility: 0.18mi
Dew Point: 41°   Wind: 8mph
Humidity: 100%   Direction: 20°NNE
Pressure: 29.94"   Gusts: NA
Location:  51.26°N, 2.51°W
Report Text: EGGD 260120Z 02007KT 0300 R27/0500 -RA FG BKN000 OVC001 05/05 Q1014
Loading
Personal Weather Stations






























Interactive Weather Map New forecast layout! Learn more

10-Day Weather Forecast

Advertisements
Track Severe Weather on mobile